createdAt,value
2017-11-13T00:01:22.821Z,73.40
2017-11-13T00:03:50.945Z,73.20
2017-11-13T00:06:19.082Z,73.30
2017-11-13T00:08:47.196Z,73.60
2017-11-13T00:11:15.323Z,73.40
2017-11-13T00:13:43.464Z,73.60
2017-11-13T00:16:11.595Z,74.00
2017-11-13T00:18:40.512Z,73.60
2017-11-13T00:21:08.630Z,73.50
2017-11-13T00:23:36.735Z,73.30
2017-11-13T00:26:05.655Z,74.00
2017-11-13T00:28:33.760Z,73.90
2017-11-13T00:31:02.675Z,74.00
2017-11-13T00:33:31.602Z,74.30
2017-11-13T00:36:00.580Z,74.40
2017-11-13T00:38:28.715Z,74.30
2017-11-13T00:40:58.351Z,74.30
2017-11-13T00:43:26.472Z,74.30
2017-11-13T00:45:54.591Z,74.30
2017-11-13T00:48:23.493Z,74.50
2017-11-13T00:50:52.375Z,74.40
2017-11-13T00:53:20.503Z,74.40
2017-11-13T00:55:48.619Z,73.90
2017-11-13T00:58:16.747Z,74.30
2017-11-13T01:00:44.866Z,73.80
2017-11-13T01:03:12.982Z,74.40
2017-11-13T01:05:41.100Z,74.80
2017-11-13T01:08:09.990Z,74.10
2017-11-13T01:10:38.874Z,74.60
2017-11-13T01:13:07.752Z,74.10
2017-11-13T01:15:35.889Z,74.10
2017-11-13T01:18:04.005Z,74.20
2017-11-13T01:20:32.127Z,73.80
2017-11-13T01:23:00.239Z,74.10
2017-11-13T01:25:28.416Z,74.10
2017-11-13T01:27:57.300Z,73.50
2017-11-13T01:30:25.418Z,73.40
2017-11-13T01:32:54.243Z,73.90
2017-11-13T01:35:23.134Z,74.10
2017-11-13T01:37:51.237Z,74.00
2017-11-13T01:40:19.411Z,73.90
2017-11-13T01:42:47.523Z,73.70
2017-11-13T01:45:15.652Z,73.90
2017-11-13T01:47:43.777Z,74.00
2017-11-13T01:50:11.918Z,74.00
2017-11-13T01:52:40.032Z,73.50
2017-11-13T01:55:08.924Z,74.20
2017-11-13T01:57:37.040Z,74.20
2017-11-13T02:00:05.933Z,74.30
2017-11-13T02:02:34.817Z,74.10
2017-11-13T02:05:02.948Z,74.10
2017-11-13T02:07:31.051Z,74.40
2017-11-13T02:09:59.168Z,74.50
2017-11-13T02:12:27.291Z,74.70
2017-11-13T02:14:55.413Z,74.40
2017-11-13T02:17:23.543Z,75.20
2017-11-13T02:19:56.538Z,74.70
2017-11-13T02:22:25.427Z,75.00
2017-11-13T02:24:54.353Z,74.50
2017-11-13T02:27:22.450Z,74.50
2017-11-13T02:29:50.572Z,74.90
2017-11-13T02:32:19.485Z,76.00
2017-11-13T02:34:47.596Z,76.00
2017-11-13T02:37:15.725Z,76.20
2017-11-13T02:39:43.846Z,76.60
2017-11-13T02:42:11.970Z,76.90
2017-11-13T02:44:40.077Z,77.30
2017-11-13T02:47:08.200Z,77.50
2017-11-13T02:49:36.337Z,77.30
2017-11-13T02:52:04.469Z,77.30
2017-11-13T02:54:32.608Z,77.60
2017-11-13T02:57:01.508Z,77.50
2017-11-13T02:59:30.369Z,78.00
2017-11-13T03:01:59.340Z,77.70
2017-11-13T03:04:27.461Z,77.60
2017-11-13T03:06:55.596Z,77.70
2017-11-13T03:09:23.707Z,77.70
2017-11-13T03:11:52.411Z,77.70
2017-11-13T03:14:20.528Z,77.90
2017-11-13T03:16:48.658Z,77.70
2017-11-13T03:19:16.785Z,78.00
2017-11-13T03:21:44.909Z,78.10
2017-11-13T03:24:13.036Z,78.30
2017-11-13T03:26:41.944Z,77.90
2017-11-13T03:29:10.057Z,77.90
2017-11-13T03:31:38.203Z,78.40
2017-11-13T03:34:06.334Z,78.40
2017-11-13T03:36:34.547Z,78.30
2017-11-13T03:39:02.663Z,78.40
2017-11-13T03:41:30.808Z,78.40
2017-11-13T03:43:58.922Z,78.60
2017-11-13T03:46:27.825Z,78.40
2017-11-13T03:48:56.705Z,78.20
2017-11-13T03:51:25.605Z,77.90
2017-11-13T03:53:54.495Z,77.80
2017-11-13T03:56:23.404Z,77.90
2017-11-13T03:58:51.502Z,77.90
2017-11-13T04:01:19.631Z,77.90
2017-11-13T04:03:48.518Z,78.30
2017-11-13T04:06:17.415Z,78.50
2017-11-13T04:08:45.532Z,78.50
2017-11-13T04:11:13.674Z,79.00
2017-11-13T04:13:41.807Z,79.30
2017-11-13T04:16:09.943Z,80.00
2017-11-13T04:18:38.059Z,79.00
2017-11-13T04:21:06.952Z,78.50
2017-11-13T04:23:35.843Z,78.60
2017-11-13T04:26:04.867Z,78.70
2017-11-13T04:28:32.960Z,78.80
2017-11-13T04:31:01.096Z,79.10
2017-11-13T04:33:29.225Z,78.80
2017-11-13T04:35:57.355Z,78.90
2017-11-13T04:38:25.482Z,78.90
2017-11-13T04:40:54.372Z,79.20
2017-11-13T04:43:23.302Z,78.30
2017-11-13T04:45:52.167Z,78.60
2017-11-13T04:48:21.065Z,78.50
2017-11-13T04:50:49.189Z,78.50
2017-11-13T04:53:17.314Z,78.40
2017-11-13T04:55:45.448Z,78.50
2017-11-13T04:58:13.579Z,78.70
2017-11-13T05:00:41.692Z,78.50
2017-11-13T05:03:09.863Z,78.60
2017-11-13T05:05:37.973Z,78.80
2017-11-13T05:08:06.109Z,78.70
2017-11-13T05:10:34.247Z,78.60
2017-11-13T05:13:02.380Z,78.70
2017-11-13T05:15:31.296Z,78.50
2017-11-13T05:17:59.399Z,78.50
2017-11-13T05:20:27.531Z,78.50
2017-11-13T05:22:55.664Z,78.40
2017-11-13T05:25:23.775Z,78.40
2017-11-13T05:27:51.909Z,78.50
2017-11-13T05:30:20.038Z,78.80
2017-11-13T05:32:48.224Z,79.10
2017-11-13T05:35:16.332Z,79.00
2017-11-13T05:37:44.462Z,78.90
2017-11-13T05:40:12.604Z,79.10
2017-11-13T05:42:40.716Z,79.30
2017-11-13T05:45:08.862Z,79.40
2017-11-13T05:47:36.972Z,79.20
2017-11-13T05:50:05.159Z,79.20
2017-11-13T05:52:33.298Z,79.40
2017-11-13T05:55:01.476Z,79.50
2017-11-13T05:57:29.591Z,79.10
2017-11-13T05:59:58.499Z,78.80
2017-11-13T06:02:26.628Z,78.80
2017-11-13T06:04:54.777Z,78.80
2017-11-13T06:07:22.885Z,78.90
2017-11-13T06:09:51.780Z,78.80
2017-11-13T06:12:20.667Z,78.50
2017-11-13T06:14:48.798Z,78.50
2017-11-13T06:17:16.919Z,79.10
2017-11-13T06:19:45.808Z,78.80
2017-11-13T06:22:14.718Z,79.10
2017-11-13T06:24:43.732Z,78.90
2017-11-13T06:27:11.830Z,78.90
2017-11-13T06:29:39.946Z,78.80
2017-11-13T06:32:08.866Z,78.90
2017-11-13T06:34:36.973Z,79.50
2017-11-13T06:37:05.117Z,78.70
2017-11-13T06:39:33.241Z,79.00
2017-11-13T06:42:02.146Z,79.20
2017-11-13T06:44:31.038Z,79.10
2017-11-13T06:46:59.977Z,79.10
2017-11-13T06:49:28.091Z,79.10
2017-11-13T06:51:57.000Z,79.30
2017-11-13T06:54:25.129Z,79.40
2017-11-13T06:56:53.255Z,79.30
2017-11-13T06:59:21.391Z,79.40
2017-11-13T07:01:49.527Z,79.40
2017-11-13T07:04:17.650Z,79.90
2017-11-13T07:06:45.796Z,79.30
2017-11-13T07:09:13.913Z,79.20
2017-11-13T07:11:42.077Z,79.20
2017-11-13T07:14:10.952Z,79.10
2017-11-13T07:16:39.836Z,78.80
2017-11-13T07:19:08.738Z,78.80
2017-11-13T07:21:37.638Z,79.00
2017-11-13T07:24:05.773Z,78.90
2017-11-13T07:26:33.899Z,79.00
2017-11-13T07:29:02.043Z,79.10
2017-11-13T07:31:30.929Z,79.00
2017-11-13T07:33:59.821Z,79.20
2017-11-13T07:36:28.716Z,79.40
2017-11-13T07:38:56.854Z,79.40
2017-11-13T07:41:25.040Z,79.40
2017-11-13T07:43:53.941Z,79.60
2017-11-13T07:46:22.831Z,79.70
2017-11-13T07:48:51.720Z,79.90
2017-11-13T07:51:20.610Z,80.20
2017-11-13T07:53:49.520Z,80.50
2017-11-13T07:56:17.639Z,80.50
2017-11-13T07:58:45.772Z,80.10
2017-11-13T08:01:13.897Z,80.00
2017-11-13T08:03:42.022Z,79.90
2017-11-13T08:06:10.152Z,79.50
2017-11-13T08:08:39.064Z,78.90
2017-11-13T08:11:07.958Z,78.90
2017-11-13T08:13:36.855Z,79.10
2017-11-13T08:16:05.012Z,79.10
2017-11-13T08:18:33.149Z,79.50
2017-11-13T08:21:01.283Z,79.60
2017-11-13T08:23:29.429Z,79.70
2017-11-13T08:25:58.310Z,79.90
2017-11-13T08:28:26.453Z,79.90
2017-11-13T08:30:54.569Z,80.10
2017-11-13T08:33:23.466Z,79.20
2017-11-13T08:35:51.597Z,79.20
2017-11-13T08:38:19.726Z,79.90
2017-11-13T08:40:47.843Z,79.00
2017-11-13T08:43:15.983Z,78.70
2017-11-13T08:45:44.097Z,78.00
2017-11-13T08:48:12.240Z,78.10
2017-11-13T08:50:41.129Z,79.30
2017-11-13T08:53:09.265Z,79.30
2017-11-13T08:55:37.385Z,79.20
2017-11-13T08:58:05.529Z,78.00
2017-11-13T09:00:33.652Z,77.80
2017-11-13T09:03:02.549Z,77.60
2017-11-13T09:05:31.448Z,76.80
2017-11-13T09:08:00.364Z,77.50
2017-11-13T09:10:28.512Z,77.40
2017-11-13T09:12:57.411Z,77.80
2017-11-13T09:15:25.554Z,77.80
2017-11-13T09:17:55.301Z,76.00
2017-11-13T09:20:23.431Z,76.10
2017-11-13T09:22:52.349Z,76.40
2017-11-13T09:25:20.490Z,76.60
2017-11-13T09:27:48.604Z,76.40
2017-11-13T09:30:16.765Z,76.70
2017-11-13T09:32:45.646Z,76.40
2017-11-13T09:35:14.555Z,76.90
2017-11-13T09:37:42.692Z,76.90
2017-11-13T09:40:10.819Z,76.80
2017-11-13T09:42:38.942Z,74.60
2017-11-13T09:47:35.851Z,74.60
2017-11-13T09:50:03.980Z,73.30
2017-11-13T09:52:32.862Z,72.80
2017-11-13T09:55:01.771Z,73.20
2017-11-13T09:57:30.661Z,72.90
2017-11-13T09:59:59.561Z,72.90
2017-11-13T10:02:28.452Z,73.80
2017-11-13T10:04:56.636Z,73.60
2017-11-13T10:07:24.754Z,74.20
2017-11-13T10:09:52.881Z,74.30
2017-11-13T10:12:21.000Z,73.70
2017-11-13T10:14:49.146Z,73.00
2017-11-13T10:17:17.256Z,74.00
2017-11-13T10:19:46.143Z,72.10
2017-11-13T10:22:14.264Z,72.60
2017-11-13T10:24:42.396Z,73.40
2017-11-13T10:27:11.357Z,72.40
2017-11-13T10:29:39.471Z,72.40
2017-11-13T10:32:07.596Z,72.10
2017-11-13T10:34:35.745Z,71.50
2017-11-13T10:37:03.865Z,71.80
2017-11-13T10:39:32.767Z,72.40
2017-11-13T10:42:01.695Z,71.90
2017-11-13T10:44:29.822Z,71.80
2017-11-13T10:46:58.720Z,71.80
2017-11-13T10:49:27.618Z,71.70
2017-11-13T10:51:55.739Z,71.70
2017-11-13T10:54:23.863Z,69.70
2017-11-13T10:56:51.996Z,69.50
2017-11-13T10:59:20.136Z,70.20
2017-11-13T11:01:48.229Z,69.60
2017-11-13T11:04:16.371Z,67.80
2017-11-13T11:06:44.480Z,67.80
2017-11-13T11:09:12.616Z,67.90
2017-11-13T11:11:40.734Z,68.30
2017-11-13T11:14:11.253Z,68.30
2017-11-13T11:16:52.150Z,68.90
2017-11-13T11:19:23.707Z,68.90
2017-11-13T11:21:54.951Z,69.30
2017-11-13T11:24:23.848Z,68.70
2017-11-13T11:26:53.500Z,67.90
2017-11-13T11:29:24.368Z,67.90
2017-11-13T11:34:52.369Z,69.30
2017-11-13T11:37:31.173Z,68.50
2017-11-13T11:39:59.311Z,68.00
2017-11-13T11:42:27.419Z,68.20
2017-11-13T11:48:09.977Z,68.40
2017-11-13T11:50:38.869Z,67.00
2017-11-13T11:53:07.752Z,67.80
2017-11-13T11:55:51.641Z,67.10
2017-11-13T11:58:19.755Z,67.10
2017-11-13T12:00:47.873Z,66.60
2017-11-13T12:03:15.993Z,66.70
2017-11-13T12:05:44.149Z,66.30
2017-11-13T12:08:12.262Z,66.00
2017-11-13T12:10:40.397Z,66.20
2017-11-13T12:13:08.518Z,65.70
2017-11-13T12:15:36.649Z,65.50
2017-11-13T12:18:04.778Z,64.90
2017-11-13T12:20:32.901Z,64.40
2017-11-13T12:23:01.810Z,63.50
2017-11-13T12:25:29.944Z,63.50
2017-11-13T12:27:58.069Z,61.50
2017-11-13T12:30:26.183Z,61.50
2017-11-13T12:32:54.321Z,62.50
2017-11-13T12:35:22.473Z,61.00
2017-11-13T12:37:51.347Z,60.70
2017-11-13T12:40:19.507Z,60.70
2017-11-13T12:42:47.650Z,61.00
2017-11-13T12:45:15.752Z,60.30
2017-11-13T12:47:43.898Z,61.10
2017-11-13T12:50:12.028Z,61.20
2017-11-13T12:52:40.138Z,61.50
2017-11-13T12:55:08.274Z,62.30
2017-11-13T12:57:36.412Z,62.50
2017-11-13T13:00:04.521Z,62.30
2017-11-13T13:02:32.897Z,62.10
2017-11-13T13:05:01.928Z,61.80
2017-11-13T13:07:30.081Z,61.50
2017-11-13T13:09:58.214Z,61.50
2017-11-13T13:12:27.112Z,61.40
2017-11-13T13:14:56.008Z,61.50
2017-11-13T13:17:24.911Z,61.40
2017-11-13T13:19:53.044Z,61.40
2017-11-13T13:22:21.186Z,61.10
2017-11-13T13:24:49.317Z,61.70
2017-11-13T13:27:18.215Z,62.80
2017-11-13T13:29:46.353Z,62.80
2017-11-13T13:32:14.484Z,63.40
2017-11-13T13:34:42.612Z,64.20
2017-11-13T13:37:11.525Z,65.20
2017-11-13T13:39:39.691Z,65.10
2017-11-13T13:42:24.627Z,64.90
2017-11-13T13:44:52.743Z,64.00
2017-11-13T13:47:20.871Z,64.80
2017-11-13T13:49:49.002Z,64.80
2017-11-13T13:52:17.175Z,65.00
2017-11-13T13:54:45.321Z,63.90
2017-11-13T13:57:13.470Z,64.30
2017-11-13T13:59:42.366Z,62.80
2017-11-13T14:02:11.271Z,63.30
2017-11-13T14:04:39.405Z,63.30
2017-11-13T14:07:07.521Z,63.50
2017-11-13T14:09:35.972Z,63.30
2017-11-13T14:12:04.215Z,62.80
2017-11-13T14:14:32.356Z,63.00
2017-11-13T14:17:00.480Z,63.40
2017-11-13T14:19:28.591Z,63.30
2017-11-13T14:21:56.721Z,62.60
2017-11-13T14:24:25.502Z,62.70
2017-11-13T14:26:53.623Z,62.20
2017-11-13T14:29:21.748Z,63.10
2017-11-13T14:31:49.870Z,63.80
2017-11-13T14:34:18.023Z,63.30
2017-11-13T14:36:46.898Z,63.70
2017-11-13T14:39:16.128Z,64.00
2017-11-13T14:41:44.993Z,63.60
2017-11-13T14:44:13.954Z,63.00
2017-11-13T14:46:42.908Z,63.30
2017-11-13T14:49:11.055Z,63.30
2017-11-13T14:51:39.944Z,63.60
2017-11-13T14:54:08.080Z,63.60
2017-11-13T14:56:36.213Z,63.80
2017-11-13T14:59:04.329Z,64.20
2017-11-13T15:01:32.456Z,64.60
2017-11-13T15:04:00.605Z,64.80
2017-11-13T15:06:29.528Z,64.10
2017-11-13T15:08:57.642Z,64.20
2017-11-13T15:11:25.796Z,64.60
2017-11-13T15:13:53.932Z,64.90
2017-11-13T15:16:22.072Z,65.00
2017-11-13T15:18:50.972Z,65.10
2017-11-13T15:21:19.874Z,64.80
2017-11-13T15:23:48.077Z,64.70
2017-11-13T15:26:16.234Z,64.90
2017-11-13T15:28:44.356Z,65.30
2017-11-13T15:31:12.491Z,65.70
2017-11-13T15:33:40.591Z,65.50
2017-11-13T15:36:08.725Z,65.90
2017-11-13T15:38:36.845Z,65.90
2017-11-13T15:41:04.977Z,65.70
2017-11-13T15:43:33.104Z,65.30
2017-11-13T15:46:02.003Z,65.40
2017-11-13T15:48:30.128Z,65.40
2017-11-13T15:50:58.297Z,65.30
2017-11-13T15:53:26.436Z,65.70
2017-11-13T15:55:54.580Z,65.90
2017-11-13T15:58:23.510Z,66.10
2017-11-13T16:00:51.640Z,66.10
2017-11-13T16:03:20.533Z,67.00
2017-11-13T16:05:49.434Z,67.10
2017-11-13T16:08:18.322Z,67.50
2017-11-13T16:10:47.234Z,67.50
2017-11-13T16:13:15.364Z,67.50
2017-11-13T16:15:43.480Z,67.50
2017-11-13T16:18:11.622Z,67.70
2017-11-13T16:20:40.540Z,68.00
2017-11-13T16:23:08.680Z,68.00
2017-11-13T16:25:37.574Z,67.70
2017-11-13T16:28:06.492Z,67.80
2017-11-13T16:30:34.609Z,67.80
2017-11-13T16:33:02.747Z,67.90
2017-11-13T16:35:30.876Z,68.10
2017-11-13T16:37:59.778Z,68.10
2017-11-13T16:40:28.666Z,68.10
2017-11-13T16:42:57.564Z,68.10
2017-11-13T16:45:25.749Z,68.00
2017-11-13T16:47:54.629Z,68.60
2017-11-13T16:50:22.761Z,68.70
2017-11-13T16:52:50.900Z,69.10
2017-11-13T16:55:19.008Z,69.10
2017-11-13T16:57:47.132Z,69.20
2017-11-13T17:00:15.261Z,69.20
2017-11-13T17:02:43.409Z,69.30
2017-11-13T17:05:11.519Z,70.10
2017-11-13T17:07:40.413Z,69.50
2017-11-13T17:10:09.383Z,68.90
2017-11-13T17:12:37.519Z,68.90
2017-11-13T17:15:05.659Z,69.00
2017-11-13T17:17:33.776Z,69.10
2017-11-13T17:20:01.901Z,69.10
2017-11-13T17:22:30.036Z,69.10
2017-11-13T17:24:58.193Z,68.90
2017-11-13T17:27:26.309Z,69.00
2017-11-13T17:29:55.185Z,69.20
2017-11-13T17:32:23.338Z,69.20
2017-11-13T17:34:51.464Z,69.30
2017-11-13T17:37:19.579Z,69.50
2017-11-13T17:39:47.729Z,69.70
2017-11-13T17:42:15.900Z,69.90
2017-11-13T17:44:44.116Z,70.10
2017-11-13T17:47:12.253Z,70.20
2017-11-13T17:49:40.339Z,70.10
2017-11-13T17:52:08.505Z,70.20
2017-11-13T17:54:36.636Z,70.20
2017-11-13T17:57:04.774Z,70.20
2017-11-13T17:59:32.894Z,70.20
2017-11-13T18:02:01.050Z,70.50
2017-11-13T18:04:29.176Z,70.70
2017-11-13T18:06:57.321Z,70.60
2017-11-13T18:09:26.122Z,70.70
2017-11-13T18:11:54.272Z,70.80
2017-11-13T18:14:22.421Z,71.00
2017-11-13T18:16:51.291Z,71.00
2017-11-13T18:19:20.213Z,71.50
2017-11-13T18:21:48.319Z,71.50
2017-11-13T18:24:16.452Z,71.60
2017-11-13T18:26:44.582Z,71.60
2017-11-13T18:29:12.906Z,71.50
2017-11-13T18:31:41.768Z,71.20
2017-11-13T18:34:10.675Z,71.30
2017-11-13T18:36:38.798Z,71.20
2017-11-13T18:39:06.935Z,71.20
2017-11-13T18:41:35.065Z,71.20
2017-11-13T18:44:03.212Z,70.90
2017-11-13T18:46:31.319Z,70.90
2017-11-13T18:49:00.345Z,70.90
2017-11-13T18:51:28.477Z,70.90
2017-11-13T18:53:57.390Z,70.70
2017-11-13T18:56:25.512Z,70.60
2017-11-13T18:58:53.650Z,70.50
2017-11-13T19:01:21.781Z,70.60
2017-11-13T19:03:49.916Z,70.40
2017-11-13T19:06:18.043Z,70.60
2017-11-13T19:08:46.929Z,70.80
2017-11-13T19:11:15.804Z,70.80
2017-11-13T19:13:43.955Z,70.80
2017-11-13T19:16:12.056Z,70.80
2017-11-13T19:18:40.962Z,71.10
2017-11-13T19:21:09.136Z,71.10
2017-11-13T19:23:38.036Z,71.60
2017-11-13T19:26:06.169Z,71.60
2017-11-13T19:28:34.542Z,71.80
2017-11-13T19:31:02.629Z,72.00
2017-11-13T19:33:31.729Z,72.50
2017-11-13T19:35:59.914Z,72.40
2017-11-13T19:38:28.837Z,73.00
2017-11-13T19:40:56.962Z,73.00
2017-11-13T19:43:25.967Z,73.70
2017-11-13T19:45:55.069Z,73.90
2017-11-13T19:48:23.234Z,73.90
2017-11-13T19:50:52.362Z,73.90
2017-11-13T19:53:21.326Z,73.80
2017-11-13T19:55:50.223Z,74.00
2017-11-13T19:58:18.351Z,73.80
2017-11-13T20:00:46.520Z,73.70
2017-11-13T20:03:14.670Z,73.60
2017-11-13T20:05:42.813Z,73.60
2017-11-13T20:08:10.947Z,73.70
2017-11-13T20:10:39.086Z,73.50
2017-11-13T20:13:07.240Z,73.50
2017-11-13T20:15:35.693Z,73.90
2017-11-13T20:18:03.799Z,73.40
2017-11-13T20:20:31.954Z,73.20
2017-11-13T20:23:00.091Z,73.20
2017-11-13T20:25:28.213Z,73.20
2017-11-13T20:27:56.365Z,73.10
2017-11-13T20:30:24.562Z,73.00
2017-11-13T20:32:52.677Z,73.10
2017-11-13T20:35:20.828Z,73.20
2017-11-13T20:37:48.975Z,73.30
2017-11-13T20:40:17.132Z,73.40
2017-11-13T20:42:45.311Z,73.60
2017-11-13T20:45:13.465Z,74.00
2017-11-13T20:47:41.605Z,74.00
2017-11-13T20:50:09.788Z,74.00
2017-11-13T20:52:37.943Z,74.00
2017-11-13T20:55:06.127Z,74.30
2017-11-13T20:57:34.297Z,74.30
2017-11-13T21:00:02.437Z,74.30
2017-11-13T21:02:30.594Z,74.40
2017-11-13T21:04:58.722Z,74.80
2017-11-13T21:07:26.882Z,74.70
2017-11-13T21:09:55.038Z,74.70
2017-11-13T21:12:23.165Z,74.80
2017-11-13T21:14:52.076Z,75.60
2017-11-13T21:17:20.210Z,75.60
2017-11-13T21:19:49.133Z,75.30
2017-11-13T21:22:17.269Z,75.30
2017-11-13T21:24:45.399Z,75.40
2017-11-13T21:27:13.546Z,75.60
2017-11-13T21:29:41.684Z,75.70
2017-11-13T21:32:09.842Z,75.60
2017-11-13T21:34:37.995Z,75.70
2017-11-13T21:37:06.114Z,75.60
2017-11-13T21:39:35.004Z,75.30
2017-11-13T21:42:03.901Z,75.30
2017-11-13T21:44:32.803Z,75.00
2017-11-13T21:47:00.943Z,74.90
2017-11-13T21:49:29.046Z,74.90
2017-11-13T21:51:57.188Z,75.00
2017-11-13T21:54:25.546Z,74.90
2017-11-13T21:56:53.695Z,75.00
2017-11-13T21:59:21.807Z,74.70
2017-11-13T22:01:49.944Z,74.70
2017-11-13T22:04:18.084Z,75.40
2017-11-13T22:06:46.219Z,74.60
2017-11-13T22:09:14.343Z,74.70
2017-11-13T22:11:42.490Z,74.80
2017-11-13T22:14:11.357Z,74.80
2017-11-13T22:16:39.485Z,74.80
2017-11-13T22:19:07.601Z,75.00
2017-11-13T22:21:35.749Z,75.00
2017-11-13T22:24:03.867Z,75.00
2017-11-13T22:26:32.026Z,74.80
2017-11-13T22:29:00.914Z,74.70
2017-11-13T22:31:29.044Z,74.70
2017-11-13T22:33:57.159Z,74.60
2017-11-13T22:36:26.050Z,74.60
2017-11-13T22:38:54.935Z,74.60
2017-11-13T22:41:23.082Z,74.60
2017-11-13T22:43:51.188Z,74.40
2017-11-13T22:46:20.099Z,74.40
2017-11-13T22:48:48.969Z,74.30
2017-11-13T22:51:17.864Z,74.20
2017-11-13T22:53:46.766Z,74.30
2017-11-13T22:56:14.908Z,74.30
2017-11-13T22:58:43.126Z,74.30
2017-11-13T23:01:11.248Z,74.40
2017-11-13T23:03:39.361Z,74.30
2017-11-13T23:06:07.520Z,74.30
2017-11-13T23:08:36.406Z,74.00
2017-11-13T23:11:05.308Z,74.00
2017-11-13T23:13:34.173Z,73.90
2017-11-13T23:16:03.083Z,73.90
2017-11-13T23:18:31.952Z,73.80
2017-11-13T23:21:00.093Z,73.90
2017-11-13T23:23:28.231Z,73.80
2017-11-13T23:25:56.347Z,73.60
2017-11-13T23:28:24.493Z,73.50
2017-11-13T23:30:52.605Z,73.60
2017-11-13T23:33:20.715Z,73.60
2017-11-13T23:35:48.832Z,73.70
2017-11-13T23:38:16.966Z,73.70
2017-11-13T23:40:45.081Z,74.30
2017-11-13T23:43:13.202Z,73.70
2017-11-13T23:45:41.328Z,73.80
2017-11-13T23:48:09.465Z,73.90
2017-11-13T23:50:37.576Z,73.90
2017-11-13T23:53:05.702Z,73.90
2017-11-13T23:55:33.869Z,74.00
2017-11-13T23:58:01.999Z,74.00
